createdAt,value
2023-05-12T00:02:46.744Z,7.79
2023-05-12T00:07:49.679Z,7.76
2023-05-12T00:12:52.296Z,7.83
2023-05-12T00:17:55.247Z,7.84
2023-05-12T00:22:58.087Z,7.88
2023-05-12T00:28:00.870Z,7.88
2023-05-12T00:33:03.707Z,7.89
2023-05-12T00:38:06.363Z,8.15
2023-05-12T00:43:09.144Z,8.37
2023-05-12T00:48:11.912Z,8.60
2023-05-12T00:53:14.959Z,8.83
2023-05-12T00:58:17.860Z,8.97
2023-05-12T01:03:20.629Z,8.99
2023-05-12T01:08:25.258Z,9.05
2023-05-12T01:13:29.228Z,9.07
2023-05-12T01:18:34.639Z,9.05
2023-05-12T01:23:43.022Z,9.09
2023-05-12T01:28:47.914Z,9.05
2023-05-12T01:33:51.207Z,9.09
2023-05-12T01:38:54.096Z,9.13
2023-05-12T01:43:56.878Z,9.08
2023-05-12T01:48:59.713Z,9.14
2023-05-12T01:54:02.724Z,9.18
2023-05-12T01:59:08.838Z,9.23
2023-05-12T02:04:11.902Z,9.35
2023-05-12T02:09:14.772Z,9.43
2023-05-12T02:14:17.544Z,9.48
2023-05-12T02:19:21.300Z,9.60
2023-05-12T02:24:23.856Z,9.65
2023-05-12T02:29:27.127Z,9.74
2023-05-12T02:34:29.959Z,9.85
2023-05-12T02:39:32.741Z,10.03
2023-05-12T02:44:35.348Z,10.31
2023-05-12T02:49:37.987Z,10.43
2023-05-12T02:54:41.116Z,10.43
2023-05-12T02:59:43.926Z,10.57
2023-05-12T03:04:46.589Z,10.64
2023-05-12T03:09:49.713Z,10.72
2023-05-12T03:14:52.225Z,10.88
2023-05-12T03:19:54.936Z,10.91
2023-05-12T03:24:57.552Z,11.03
2023-05-12T03:30:05.318Z,11.11
2023-05-12T03:35:11.756Z,11.29
2023-05-12T03:40:19.258Z,11.38
2023-05-12T03:45:23.721Z,11.54
2023-05-12T03:50:26.428Z,11.51
2023-05-12T03:55:29.123Z,11.39
2023-05-12T04:00:33.217Z,11.35
2023-05-12T04:05:38.241Z,11.34
2023-05-12T04:10:42.179Z,11.49
2023-05-12T04:15:45.037Z,11.71
2023-05-12T04:20:47.668Z,12.01
2023-05-12T04:25:50.337Z,12.23
2023-05-12T04:30:53.298Z,12.20
2023-05-12T04:35:59.356Z,12.13
2023-05-12T04:41:02.503Z,12.31
2023-05-12T04:46:05.949Z,13.03
2023-05-12T04:51:09.683Z,13.92
2023-05-12T04:56:12.778Z,14.31
2023-05-12T05:01:15.503Z,14.39
2023-05-12T05:06:18.226Z,14.46
2023-05-12T05:11:22.592Z,14.69
2023-05-12T05:16:25.711Z,17.54
2023-05-12T05:21:29.067Z,16.32
2023-05-12T05:26:32.453Z,16.44
2023-05-12T05:31:35.349Z,18.68
2023-05-12T05:36:38.196Z,20.44
2023-05-12T05:41:41.045Z,18.42
2023-05-12T05:46:44.624Z,21.16
2023-05-12T05:51:47.872Z,21.67
2023-05-12T05:56:52.504Z,19.51
2023-05-12T06:01:55.213Z,18.06
2023-05-12T06:06:57.959Z,17.75
2023-05-12T06:12:00.705Z,17.23
2023-05-12T06:17:03.550Z,16.98
2023-05-12T06:22:06.489Z,16.43
2023-05-12T06:27:09.185Z,16.13
2023-05-12T06:32:11.815Z,15.55
2023-05-12T06:37:14.575Z,15.44
2023-05-12T06:42:17.098Z,15.33
2023-05-12T06:47:26.049Z,15.82
2023-05-12T06:52:28.652Z,18.39
2023-05-12T06:57:31.378Z,18.24
2023-05-12T07:02:34.237Z,18.89
2023-05-12T07:07:37.082Z,20.37
2023-05-12T07:12:39.818Z,22.94
2023-05-12T07:17:42.704Z,21.88
2023-05-12T07:22:45.547Z,22.78
2023-05-12T07:27:48.293Z,21.82
2023-05-12T07:32:51.062Z,23.08
2023-05-12T07:37:53.690Z,20.55
2023-05-12T07:42:56.292Z,21.64
2023-05-12T07:47:58.943Z,20.16
2023-05-12T07:53:01.821Z,19.61
2023-05-12T07:58:04.625Z,23.20
2023-05-12T08:03:07.915Z,22.54
2023-05-12T08:08:16.858Z,21.32
2023-05-12T08:13:19.606Z,20.55
2023-05-12T08:18:22.514Z,20.05
2023-05-12T08:23:25.497Z,20.26
2023-05-12T08:28:28.184Z,19.92
2023-05-12T08:33:31.218Z,19.15
2023-05-12T08:38:34.374Z,20.56
2023-05-12T08:43:46.140Z,23.22
2023-05-12T08:48:51.429Z,23.78
2023-05-12T08:53:56.745Z,25.30
2023-05-12T08:59:01.483Z,23.83
2023-05-12T09:04:07.494Z,22.28
2023-05-12T09:09:12.365Z,20.66
2023-05-12T09:14:25.849Z,22.47
2023-05-12T09:19:28.605Z,21.53
2023-05-12T09:24:38.917Z,19.93
2023-05-12T09:29:59.167Z,20.43
2023-05-12T09:35:04.709Z,21.17
2023-05-12T09:40:11.670Z,20.28
2023-05-12T09:45:15.731Z,19.37
2023-05-12T09:50:19.690Z,19.09
2023-05-12T09:55:23.413Z,22.42
2023-05-12T10:00:38.699Z,22.43
2023-05-12T10:05:51.152Z,21.30
2023-05-12T10:10:56.053Z,20.52
2023-05-12T10:16:00.947Z,20.16
2023-05-12T10:21:06.426Z,23.00
2023-05-12T10:26:11.680Z,23.24
2023-05-12T10:31:15.388Z,21.65
2023-05-12T10:36:20.900Z,20.94
2023-05-12T10:41:31.448Z,20.18
2023-05-12T10:46:34.466Z,21.31
2023-05-12T10:51:44.136Z,20.91
2023-05-12T10:56:49.338Z,20.61
2023-05-12T11:02:01.795Z,20.29
2023-05-12T11:07:08.452Z,20.05
2023-05-12T11:12:15.105Z,19.63
2023-05-12T11:17:21.483Z,19.91
2023-05-12T11:22:27.926Z,19.95
2023-05-12T11:27:33.544Z,18.84
2023-05-12T11:32:41.830Z,18.53
2023-05-12T11:37:48.433Z,18.63
2023-05-12T11:42:57.143Z,19.51
2023-05-12T11:48:13.628Z,20.24
2023-05-12T11:53:27.705Z,19.64
2023-05-12T11:58:33.040Z,19.80
2023-05-12T12:03:47.932Z,19.72
2023-05-12T12:08:55.611Z,20.24
2023-05-12T12:14:07.574Z,19.97
2023-05-12T12:19:16.046Z,19.60
2023-05-12T12:24:19.148Z,19.46
2023-05-12T12:29:24.125Z,19.65
2023-05-12T12:34:27.084Z,19.53
2023-05-12T12:39:29.688Z,19.33
2023-05-12T12:44:32.674Z,19.31
2023-05-12T12:49:35.599Z,18.92
2023-05-12T12:54:38.402Z,19.15
2023-05-12T12:59:41.205Z,18.81
2023-05-12T13:04:45.408Z,18.25
2023-05-12T13:09:49.089Z,17.75
2023-05-12T13:14:51.889Z,17.61
2023-05-12T13:19:55.749Z,17.61
2023-05-12T13:24:59.611Z,18.12
2023-05-12T13:30:13.339Z,18.01
2023-05-12T13:35:17.363Z,18.26
2023-05-12T13:40:20.620Z,18.32
2023-05-12T13:45:23.740Z,18.11
2023-05-12T13:50:27.169Z,17.82
2023-05-12T13:55:30.340Z,17.45
2023-05-12T14:00:33.712Z,16.98
2023-05-12T14:05:36.627Z,16.83
2023-05-12T14:10:39.526Z,16.60
2023-05-12T14:15:49.251Z,16.55
2023-05-12T14:20:53.292Z,16.49
2023-05-12T14:25:56.236Z,16.35
2023-05-12T14:30:59.417Z,16.14
2023-05-12T14:36:07.409Z,16.05
2023-05-12T14:41:11.410Z,15.94
2023-05-12T14:46:14.186Z,15.88
2023-05-12T14:51:18.247Z,15.77
2023-05-12T14:56:22.921Z,15.62
2023-05-12T15:01:31.652Z,15.55
2023-05-12T15:06:34.642Z,15.45
2023-05-12T15:11:38.066Z,15.34
2023-05-12T15:16:41.138Z,15.17
2023-05-12T15:21:44.201Z,15.04
2023-05-12T15:26:46.965Z,14.97
2023-05-12T15:31:50.211Z,15.11
2023-05-12T15:36:54.677Z,15.14
2023-05-12T15:41:59.738Z,15.25
2023-05-12T15:47:03.150Z,15.08
2023-05-12T15:52:08.390Z,14.82
2023-05-12T15:57:14.082Z,14.47
2023-05-12T16:02:18.229Z,14.26
2023-05-12T16:07:22.256Z,14.00
2023-05-12T16:12:25.226Z,13.76
2023-05-12T16:17:29.033Z,13.55
2023-05-12T16:22:32.171Z,13.37
2023-05-12T16:27:36.865Z,13.16
2023-05-12T16:32:40.237Z,13.02
2023-05-12T16:37:43.121Z,12.86
2023-05-12T16:42:48.248Z,12.68
2023-05-12T16:47:53.746Z,12.54
2023-05-12T16:52:56.561Z,12.45
2023-05-12T16:57:59.753Z,12.33
2023-05-12T17:03:04.562Z,12.23
2023-05-12T17:08:07.577Z,12.16
2023-05-12T17:13:10.446Z,12.07
2023-05-12T17:18:13.441Z,12.03
2023-05-12T17:23:16.165Z,12.02
2023-05-12T17:28:19.483Z,11.98
2023-05-12T17:33:23.761Z,11.92
2023-05-12T17:38:27.769Z,11.85
2023-05-12T17:43:30.510Z,11.77
2023-05-12T17:48:33.629Z,11.71
2023-05-12T17:53:36.614Z,11.69
2023-05-12T17:58:39.511Z,11.65
2023-05-12T18:03:42.488Z,11.55
2023-05-12T18:08:46.836Z,11.42
2023-05-12T18:13:53.159Z,11.37
2023-05-12T18:18:56.185Z,11.29
2023-05-12T18:23:59.080Z,11.20
2023-05-12T18:29:01.763Z,11.04
2023-05-12T18:34:04.702Z,11.08
2023-05-12T18:39:08.856Z,11.00
2023-05-12T18:44:11.625Z,10.96
2023-05-12T18:49:14.182Z,10.88
2023-05-12T18:54:16.983Z,10.77
2023-05-12T18:59:19.886Z,10.71
2023-05-12T19:04:22.633Z,10.70
2023-05-12T19:09:25.908Z,10.62
2023-05-12T19:14:28.692Z,10.56
2023-05-12T19:19:31.383Z,10.50
2023-05-12T19:24:36.656Z,10.40
2023-05-12T19:29:39.303Z,10.27
2023-05-12T19:34:42.140Z,10.11
2023-05-12T19:39:44.733Z,10.19
2023-05-12T19:44:47.573Z,10.09
2023-05-12T19:49:50.777Z,10.03
2023-05-12T19:54:53.783Z,9.97
2023-05-12T19:59:56.940Z,9.86
2023-05-12T20:05:01.247Z,9.78
2023-05-12T20:10:06.139Z,9.74
2023-05-12T20:15:10.472Z,9.75
2023-05-12T20:20:15.005Z,9.68
2023-05-12T20:25:18.170Z,9.64
2023-05-12T20:30:21.179Z,9.58
2023-05-12T20:35:24.403Z,9.50
2023-05-12T20:40:27.180Z,9.47
2023-05-12T20:45:29.976Z,9.50
2023-05-12T20:50:32.559Z,9.47
2023-05-12T20:55:35.169Z,9.44
2023-05-12T21:00:37.700Z,9.44
2023-05-12T21:05:42.254Z,9.39
2023-05-12T21:10:45.234Z,9.44
2023-05-12T21:15:48.101Z,9.46
2023-05-12T21:20:51.045Z,9.42
2023-05-12T21:25:54.086Z,9.35
2023-05-12T21:30:56.988Z,9.28
2023-05-12T21:35:59.891Z,9.19
2023-05-12T21:41:02.587Z,9.15
2023-05-12T21:46:06.144Z,9.07
2023-05-12T21:51:08.929Z,9.05
2023-05-12T21:56:11.730Z,9.10
2023-05-12T22:01:15.053Z,9.09
2023-05-12T22:06:17.619Z,9.12
2023-05-12T22:11:20.241Z,9.03
2023-05-12T22:16:31.175Z,9.01
2023-05-12T22:21:41.544Z,8.89
2023-05-12T22:26:44.108Z,8.91
2023-05-12T22:31:46.857Z,8.87
2023-05-12T22:36:50.070Z,8.92
2023-05-12T22:41:52.727Z,8.87
2023-05-12T22:46:55.466Z,8.84
2023-05-12T22:51:58.663Z,8.79
2023-05-12T22:57:01.574Z,8.66
2023-05-12T23:02:04.640Z,8.66
2023-05-12T23:07:09.149Z,8.75
2023-05-12T23:12:12.196Z,8.92
2023-05-12T23:17:15.132Z,9.02
2023-05-12T23:22:17.924Z,9.07
2023-05-12T23:27:20.741Z,9.17
2023-05-12T23:32:23.579Z,9.12
2023-05-12T23:37:26.339Z,9.14
2023-05-12T23:42:29.139Z,9.15
2023-05-12T23:47:31.878Z,9.16
2023-05-12T23:52:34.473Z,9.19
2023-05-12T23:57:36.941Z,9.21
